Worthington, Minnesota
Current Conditions -  °F | °C
As of 1:35 PM on Monday 20 Oct 2014 (Local Time) from KOTG Reporting Station
Clear Clear  
Wind Chill: 66°   Ceiling: Unl
Heat Index: 66°   Visibility: 10mi
Dew Point: 37°   Wind: 12mph
Humidity: 35%   Direction: 330°NNW
Pressure: 30.05"   Gusts: 16mph
Location:  43.63°N, 95.62°W
Report Text: KOTG 201835Z AUTO 33010G14KT 10SM CLR 19/03 A3005 RMK AO1
Loading
Personal Weather Stations






























Interactive Weather Map
Tropical Storm Tracking
New forecast layout! Learn more

10-Day Weather Forecast

Advertisements
Track Severe Weather on mobile